Weather at Mirandela Airfield

Public forecast

Using degrees Celsius for public forecast. Weather courtesy of forecast.io.

Closest aviation weather report (METAR) to Mirandela Airfield

Closest report is Francisco de Sá Carneiro Airport, 66.9 nm (123.9 km) W.

2024/02/25 04:30 (retrieved 53 minutes ago)

LPPR 250430Z 24009KT 210V290 9999 SCT040 14/12 Q1014

Closest aviation forecast (TAF) to Mirandela Airfield

Forecast is more than 6 hours old.

Closest forecast is Ovar Air Base, 72.2 nm (133.7 km) WSW.

2024/02/24 18:06 (retrieved 11 hours ago)

TAF LPOV 241702Z 2418/2518 32012KT 9999 FEW015 SCT025 TEMPO 2418/2420 5000 -SHRA BKN014 FEW025CB BECMG 2419/2421 24015KT TEMPO 2420/2518 3000 RADZ BR BKN009 FEW018CB TEMPO 2500/2518 25015G30KT